Time;durP1;ratioP1;P1;durP2;ratioP2;P2;SDS_P1;SDS_P2;PMS_P1;PMS_P2;Temp;Humidity;BMP_temperature;BMP_pressure;BME280_temperature;BME280_humidity;BME280_pressure;Samples;Min_cycle;Max_cycle;Signal;HPM_P1;HPM_P2
2021/12/09 00:01:07;;;;;;;10.37;4.20;;;-6.20;99.90;;;;;;5015545;28;20854;-71
2021/12/09 00:03:37;;;;;;;8.87;3.73;;;-6.40;99.90;;;;;;5015452;28;20418;-71
2021/12/09 00:06:05;;;;;;;7.00;4.10;;;-5.90;99.90;;;;;;5016492;28;20403;-71
2021/12/09 00:08:31;;;;;;;11.67;3.83;;;-6.30;99.90;;;;;;5016393;28;20403;-71
2021/12/09 00:10:59;;;;;;;6.57;3.93;;;-5.80;99.90;;;;;;5016373;28;20717;-71
2021/12/09 00:13:27;;;;;;;6.00;3.73;;;-6.10;99.90;;;;;;5016000;28;20451;-73
2021/12/09 00:15:53;;;;;;;9.10;5.07;;;-5.60;99.90;;;;;;5031708;28;20418;-77
2021/12/09 00:18:19;;;;;;;6.70;5.20;;;-5.60;99.90;;;;;;5016207;28;20852;-70
2021/12/09 00:20:45;;;;;;;5.70;3.43;;;-5.30;99.90;;;;;;5016428;28;20469;-70
2021/12/09 00:23:11;;;;;;;6.27;3.10;;;-5.80;99.90;;;;;;5016275;28;20247;-71
2021/12/09 00:25:38;;;;;;;4.80;4.30;;;-6.00;99.90;;;;;;5016079;28;20573;-70
2021/12/09 00:28:05;;;;;;;8.23;3.43;;;-5.90;99.90;;;;;;5015877;28;20742;-70
2021/12/09 00:30:32;;;;;;;8.53;5.10;;;-6.40;99.90;;;;;;5016066;28;20838;-75
2021/12/09 00:33:00;;;;;;;7.87;4.57;;;-6.20;99.90;;;;;;5016013;28;20792;-71
2021/12/09 00:35:31;;;;;;;3.00;2.43;;;-5.30;99.90;;;;;;5015725;28;20473;-71
2021/12/09 00:38:07;;;;;;;7.63;3.20;;;-6.30;99.90;;;;;;5016046;28;20844;-71
2021/12/09 00:40:34;;;;;;;6.33;2.73;;;-6.10;99.90;;;;;;5015904;28;20426;-70
2021/12/09 00:43:01;;;;;;;7.23;3.33;;;-5.80;99.90;;;;;;5015818;28;20712;-71
2021/12/09 00:45:27;;;;;;;6.13;3.50;;;-5.60;99.90;;;;;;5014822;28;20446;-70
2021/12/09 00:47:53;;;;;;;8.67;4.50;;;-6.10;99.90;;;;;;5015740;28;20424;-70
2021/12/09 00:50:20;;;;;;;3.20;2.90;;;-6.10;99.90;;;;;;5015913;28;20423;-71
2021/12/09 00:52:47;;;;;;;8.47;3.20;;;-5.80;99.90;;;;;;5015751;28;20454;-71
2021/12/09 00:55:14;;;;;;;6.43;3.07;;;-5.50;99.90;;;;;;5015884;28;20399;-70
2021/12/09 00:57:41;;;;;;;8.67;3.30;;;-5.30;99.90;;;;;;5015469;28;20405;-71
2021/12/09 01:00:20;;;;;;;9.83;4.10;;;-5.30;99.90;;;;;;5014786;28;20429;-70
2021/12/09 01:02:46;;;;;;;6.57;2.83;;;-5.20;99.90;;;;;;5014702;28;20414;-71
2021/12/09 01:05:12;;;;;;;8.27;3.37;;;-5.10;99.90;;;;;;5015983;28;20418;-74
2021/12/09 01:07:39;;;;;;;9.90;3.37;;;-5.20;99.90;;;;;;5015637;28;20410;-74
2021/12/09 01:10:08;;;;;;;7.10;3.53;;;-4.40;99.90;;;;;;5014820;28;20724;-72
2021/12/09 01:12:34;;;;;;;4.70;3.03;;;-5.30;99.90;;;;;;5014310;28;20504;-75
2021/12/09 01:15:00;;;;;;;4.30;2.70;;;-5.40;99.90;;;;;;5015883;28;20481;-76
2021/12/09 01:17:27;;;;;;;10.60;3.07;;;-5.30;99.90;;;;;;5015713;28;20502;-72
2021/12/09 01:19:53;;;;;;;7.13;2.90;;;-5.40;99.90;;;;;;5015951;28;20174;-71
2021/12/09 01:22:20;;;;;;;5.07;2.63;;;-5.30;99.90;;;;;;5015724;28;20407;-75
2021/12/09 01:24:46;;;;;;;7.93;2.80;;;-5.40;99.90;;;;;;5015567;28;20413;-72
2021/12/09 01:27:13;;;;;;;5.93;2.30;;;-5.50;99.90;;;;;;5015794;28;20449;-74
2021/12/09 01:29:42;;;;;;;2.60;2.37;;;-5.50;99.90;;;;;;5015585;28;20399;-75
2021/12/09 01:32:11;;;;;;;5.93;2.60;;;-5.40;99.90;;;;;;5014329;28;20454;-73
2021/12/09 01:34:37;;;;;;;7.03;1.97;;;-5.60;99.90;;;;;;5015557;28;20477;-71
2021/12/09 01:37:05;;;;;;;5.07;2.93;;;-5.80;99.90;;;;;;5030952;28;20417;-75
2021/12/09 01:39:31;;;;;;;5.27;2.10;;;-6.60;99.90;;;;;;5015197;28;20406;-71
2021/12/09 01:41:58;;;;;;;7.47;2.67;;;-5.80;99.90;;;;;;5015424;28;20688;-75
2021/12/09 01:44:25;;;;;;;4.67;2.03;;;-6.50;99.90;;;;;;5015631;28;20395;-76
2021/12/09 01:46:52;;;;;;;6.77;2.43;;;-6.20;99.90;;;;;;5017991;28;20391;-78
2021/12/09 01:49:18;;;;;;;3.57;2.27;;;-6.10;99.90;;;;;;5018840;28;20414;-83
2021/12/09 01:51:45;;;;;;;6.20;2.27;;;-5.90;99.90;;;;;;5017991;28;20418;-78
2021/12/09 01:54:12;;;;;;;4.53;2.57;;;-5.70;99.90;;;;;;5018524;28;20176;-82
2021/12/09 01:56:38;;;;;;;8.57;2.50;;;-5.90;99.90;;;;;;5018967;28;20402;-82
2021/12/09 01:59:05;;;;;;;11.20;2.47;;;-6.30;99.90;;;;;;5018945;28;20411;-83
2021/12/09 02:01:33;;;;;;;3.90;2.10;;;-6.20;99.90;;;;;;5018863;28;20914;-73
2021/12/09 02:04:00;;;;;;;4.87;2.50;;;-6.30;99.90;;;;;;5018730;28;20446;-81
2021/12/09 02:06:26;;;;;;;4.17;2.87;;;-6.50;99.90;;;;;;5018769;28;20414;-81
2021/12/09 02:08:54;;;;;;;4.87;2.17;;;-6.30;99.90;;;;;;5018282;28;20422;-83
2021/12/09 02:11:20;;;;;;;3.77;1.80;;;-5.90;99.90;;;;;;5018771;28;20834;-81
2021/12/09 02:13:50;;;;;;;3.13;1.80;;;-5.70;99.90;;;;;;5018528;28;20521;-80
2021/12/09 02:16:17;;;;;;;2.87;1.93;;;-5.60;99.90;;;;;;5018622;28;20395;-77
2021/12/09 02:18:43;;;;;;;5.00;2.13;;;-6.10;99.90;;;;;;5018328;28;20418;-82
2021/12/09 02:21:16;;;;;;;5.60;2.47;;;-6.20;99.90;;;;;;5018393;28;20431;-79
2021/12/09 02:23:48;;;;;;;5.00;1.73;;;-6.10;99.90;;;;;;5018310;28;20445;-71
2021/12/09 02:26:16;;;;;;;6.33;1.80;;;-6.30;99.90;;;;;;5018422;28;20461;-70
2021/12/09 02:28:42;;;;;;;6.77;2.17;;;-6.20;99.90;;;;;;5018074;28;20415;-75
2021/12/09 02:31:09;;;;;;;3.60;2.00;;;-6.50;99.90;;;;;;5018360;28;20407;-72
2021/12/09 02:33:35;;;;;;;5.73;3.07;;;-6.70;99.90;;;;;;5018135;28;20451;-76
2021/12/09 02:36:01;;;;;;;3.37;1.83;;;-6.80;99.90;;;;;;5018324;28;20417;-80
2021/12/09 02:38:27;;;;;;;3.13;1.97;;;-6.40;99.90;;;;;;5017040;28;20450;-76
2021/12/09 02:40:55;;;;;;;5.57;1.93;;;-6.50;99.90;;;;;;5018151;28;20407;-76
2021/12/09 02:43:28;;;;;;;6.87;2.30;;;-6.30;99.90;;;;;;5018061;28;20177;-73
2021/12/09 02:45:56;;;;;;;3.90;2.60;;;-6.70;99.90;;;;;;5017997;28;20410;-74
2021/12/09 02:48:23;;;;;;;6.10;1.80;;;-5.90;99.90;;;;;;5016684;28;20564;-79
2021/12/09 02:50:50;;;;;;;8.27;2.53;;;-6.30;99.90;;;;;;5016901;28;20423;-75
2021/12/09 02:53:17;;;;;;;6.27;1.83;;;-6.30;99.90;;;;;;5016526;28;20650;-72
2021/12/09 02:55:44;;;;;;;6.73;2.33;;;-6.40;99.90;;;;;;5016747;28;20691;-74
2021/12/09 02:58:10;;;;;;;7.20;2.57;;;-5.60;99.90;;;;;;5017587;28;20398;-71
2021/12/09 03:01:08;;;;;;;6.70;2.17;;;-6.30;99.90;;;;;;5017639;28;20395;-74
2021/12/09 03:03:34;;;;;;;5.37;1.93;;;-6.40;99.90;;;;;;5017600;28;20780;-74
2021/12/09 03:06:01;;;;;;;3.70;2.07;;;-6.10;99.90;;;;;;5017666;28;20398;-70
2021/12/09 03:08:35;;;;;;;4.17;2.10;;;-5.90;99.90;;;;;;5017400;28;20870;-70
2021/12/09 03:11:09;;;;;;;6.13;1.97;;;-6.00;99.90;;;;;;5017450;28;20490;-71
2021/12/09 03:13:36;;;;;;;3.50;1.47;;;-5.90;99.90;;;;;;5016537;28;20473;-73
2021/12/09 03:16:03;;;;;;;6.63;2.33;;;-5.80;99.90;;;;;;5017468;28;20398;-70
2021/12/09 03:18:28;;;;;;;3.67;2.10;;;-5.80;99.90;;;;;;5017383;28;20453;-70
2021/12/09 03:20:55;;;;;;;4.93;2.37;;;-6.10;99.90;;;;;;5016823;28;20419;-72
2021/12/09 03:23:22;;;;;;;6.60;2.17;;;-6.10;99.90;;;;;;5033168;28;20525;-70
2021/12/09 03:25:49;;;;;;;13.17;3.20;;;-6.00;99.90;;;;;;5017153;28;20405;-71
2021/12/09 03:28:15;;;;;;;5.40;2.33;;;-6.00;99.90;;;;;;5017168;28;20411;-72
2021/12/09 03:30:41;;;;;;;3.97;2.63;;;-6.10;99.90;;;;;;5016031;28;20422;-72
2021/12/09 03:33:07;;;;;;;9.03;2.70;;;-6.60;99.90;;;;;;5016992;28;20753;-74
2021/12/09 03:35:35;;;;;;;4.50;2.47;;;-6.20;99.90;;;;;;5015736;28;20414;-71
2021/12/09 03:38:03;;;;;;;7.20;2.37;;;-5.40;99.90;;;;;;5016998;28;20173;-74
2021/12/09 03:40:28;;;;;;;5.23;2.70;;;-6.10;99.90;;;;;;5016991;28;20821;-71
2021/12/09 03:42:54;;;;;;;5.67;2.33;;;-6.40;99.90;;;;;;5017053;28;20409;-70
2021/12/09 03:45:20;;;;;;;10.07;3.23;;;-6.00;99.90;;;;;;5016032;28;20260;-70
2021/12/09 03:47:45;;;;;;;10.67;2.80;;;-5.80;99.90;;;;;;5032095;28;20176;-70
2021/12/09 03:50:13;;;;;;;4.50;2.67;;;-5.90;99.90;;;;;;5016763;28;20173;-71
2021/12/09 03:52:39;;;;;;;12.87;2.63;;;-6.20;99.90;;;;;;5016749;28;20193;-70
2021/12/09 03:55:07;;;;;;;9.30;4.23;;;-6.20;99.90;;;;;;5017141;28;20438;-72
2021/12/09 03:57:33;;;;;;;6.60;3.10;;;-6.10;99.90;;;;;;5016871;28;20430;-72
2021/12/09 03:59:59;;;;;;;4.63;3.00;;;-6.00;99.90;;;;;;5015455;28;20422;-71
2021/12/09 04:02:25;;;;;;;3.27;2.57;;;-6.50;99.90;;;;;;5015618;28;20423;-70
2021/12/09 04:04:51;;;;;;;3.87;2.50;;;-6.20;99.90;;;;;;5016264;28;20187;-71
2021/12/09 04:07:17;;;;;;;9.73;3.27;;;-6.60;99.90;;;;;;5016476;28;20407;-73
2021/12/09 04:09:43;;;;;;;5.70;3.67;;;-6.60;99.90;;;;;;5016102;28;20181;-79
2021/12/09 04:12:09;;;;;;;14.90;4.20;;;-5.50;99.90;;;;;;5031788;28;20600;-77
2021/12/09 04:14:36;;;;;;;6.70;2.70;;;-6.60;99.90;;;;;;5016631;28;20414;-75
2021/12/09 04:17:02;;;;;;;12.27;4.17;;;-6.40;99.90;;;;;;5016236;28;20460;-74
2021/12/09 04:19:28;;;;;;;5.13;2.30;;;-6.30;99.90;;;;;;5016033;28;20468;-75
2021/12/09 04:21:54;;;;;;;8.63;3.33;;;-6.20;99.90;;;;;;5015063;28;20427;-75
2021/12/09 04:24:21;;;;;;;5.77;3.03;;;-6.20;99.90;;;;;;5016334;28;20173;-76
2021/12/09 04:26:49;;;;;;;9.00;3.73;;;-6.20;99.90;;;;;;5016304;28;20188;-80
2021/12/09 04:29:15;;;;;;;4.47;2.70;;;-6.30;99.90;;;;;;5016314;28;20701;-78
2021/12/09 04:31:42;;;;;;;5.40;2.83;;;-6.30;99.90;;;;;;5016153;28;20430;-80
2021/12/09 04:34:09;;;;;;;5.40;2.83;;;-6.10;99.90;;;;;;5015914;28;20470;-78
2021/12/09 04:36:35;;;;;;;11.57;5.07;;;-6.20;99.90;;;;;;5014904;28;20402;-79
2021/12/09 04:39:02;;;;;;;6.30;2.73;;;-6.10;99.90;;;;;;5016095;28;20406;-73
2021/12/09 04:41:28;;;;;;;8.27;4.53;;;-6.20;99.90;;;;;;5016041;28;20162;-73
2021/12/09 04:43:53;;;;;;;7.87;3.43;;;-6.20;99.90;;;;;;5016080;28;20406;-80
2021/12/09 04:46:19;;;;;;;9.87;3.80;;;-5.90;99.90;;;;;;5016073;28;20173;-77
2021/12/09 04:48:45;;;;;;;7.50;2.70;;;-5.40;99.90;;;;;;5015606;28;20189;-77
2021/12/09 04:51:11;;;;;;;7.50;3.20;;;-6.00;99.90;;;;;;5016436;28;20251;-73
2021/12/09 04:53:38;;;;;;;5.33;2.90;;;-6.10;99.90;;;;;;5015998;28;20639;-76
2021/12/09 04:56:04;;;;;;;4.43;3.33;;;-5.80;99.90;;;;;;5015932;28;20193;-75
2021/12/09 04:58:30;;;;;;;9.20;2.67;;;-5.60;99.90;;;;;;5016017;28;20395;-76
2021/12/09 05:00:58;;;;;;;6.10;3.20;;;-6.00;99.90;;;;;;5014865;28;20861;-78
2021/12/09 05:03:23;;;;;;;7.80;2.73;;;-5.80;99.90;;;;;;5014550;28;20173;-78
2021/12/09 05:05:52;;;;;;;8.30;2.80;;;-5.90;99.90;;;;;;5014768;28;20865;-75
2021/12/09 05:08:22;;;;;;;7.43;2.90;;;-4.30;99.90;;;;;;5015786;28;20184;-72
2021/12/09 05:11:00;;;;;;;6.77;2.60;;;-6.10;99.90;;;;;;5016007;28;20415;-79
2021/12/09 05:13:27;;;;;;;9.67;3.73;;;-5.80;99.90;;;;;;5015653;28;20913;-71
2021/12/09 05:15:54;;;;;;;5.03;2.80;;;-5.20;99.90;;;;;;5015720;28;20398;-71
2021/12/09 05:18:22;;;;;;;6.57;3.70;;;-6.10;99.90;;;;;;5014375;28;20403;-74
2021/12/09 05:20:48;;;;;;;9.13;3.50;;;-6.30;99.90;;;;;;5017178;28;20430;-76
2021/12/09 05:23:17;;;;;;;9.00;3.70;;;-6.50;99.90;;;;;;5018433;28;20430;-75
2021/12/09 05:25:43;;;;;;;10.30;2.77;;;-6.60;99.90;;;;;;5019662;28;20407;-84
2021/12/09 05:28:11;;;;;;;7.13;3.70;;;-6.20;99.90;;;;;;5019412;28;20406;-80
2021/12/09 05:32:07;;;;;;;5.57;3.50;;;-6.30;99.90;;;;;;5019449;28;20722;-83
2021/12/09 05:33:23;;;;;;;6.53;2.87;;;-6.80;99.90;;;;;;5018970;28;20466;-82
2021/12/09 05:35:49;;;;;;;6.97;2.80;;;-6.20;99.90;;;;;;5019432;28;20399;-84
2021/12/09 05:38:14;;;;;;;6.90;3.23;;;-6.10;99.90;;;;;;5019165;28;20180;-84
2021/12/09 05:40:40;;;;;;;5.53;2.67;;;-5.80;99.90;;;;;;5019427;28;20197;-77
2021/12/09 05:43:06;;;;;;;9.67;3.50;;;-5.60;99.90;;;;;;5019302;28;20587;-78
2021/12/09 05:45:32;;;;;;;7.03;2.97;;;-5.90;99.90;;;;;;5019307;28;20188;-79
2021/12/09 05:47:57;;;;;;;9.37;3.03;;;-5.80;99.90;;;;;;5018603;28;20239;-73
2021/12/09 05:50:23;;;;;;;14.33;4.30;;;-5.40;99.90;;;;;;5017956;28;20189;-73
2021/12/09 05:52:49;;;;;;;7.93;3.67;;;-5.80;99.90;;;;;;5018981;28;20236;-74
2021/12/09 05:55:16;;;;;;;7.57;3.40;;;-6.00;99.90;;;;;;5019058;28;20554;-73
2021/12/09 05:57:42;;;;;;;9.43;3.33;;;-5.80;99.90;;;;;;5018896;28;20402;-83
2021/12/09 06:00:09;;;;;;;6.37;2.87;;;-5.50;99.90;;;;;;5018915;28;20533;-76
2021/12/09 06:02:35;;;;;;;10.03;4.07;;;-5.60;99.90;;;;;;5018485;28;20189;-73
2021/12/09 06:05:03;;;;;;;9.77;2.90;;;-5.30;99.90;;;;;;5034334;28;20422;-77
2021/12/09 06:07:29;;;;;;;5.20;2.77;;;-5.10;99.90;;;;;;5018668;28;20407;-81
2021/12/09 06:09:55;;;;;;;9.13;3.60;;;-5.20;99.90;;;;;;5018747;28;20407;-79
2021/12/09 06:12:21;;;;;;;5.57;2.83;;;-4.70;99.90;;;;;;5018460;28;20189;-75
2021/12/09 06:14:47;;;;;;;8.33;2.43;;;-4.50;99.90;;;;;;5018373;28;20465;-73
2021/12/09 06:17:13;;;;;;;5.37;2.87;;;-5.00;99.90;;;;;;5018599;28;20819;-74
2021/12/09 06:19:39;;;;;;;9.50;2.60;;;-4.60;99.90;;;;;;5018303;28;20223;-74
2021/12/09 06:22:05;;;;;;;2.73;2.03;;;-4.90;99.90;;;;;;5018375;28;20174;-72
2021/12/09 06:24:31;;;;;;;10.23;5.37;;;-4.50;99.90;;;;;;5018438;28;20177;-76
2021/12/09 06:26:57;;;;;;;1.87;1.77;;;-4.70;99.90;;;;;;5033799;28;20205;-76
2021/12/09 06:29:23;;;;;;;5.63;3.10;;;-4.50;99.90;;;;;;5017885;28;20181;-77
2021/12/09 06:31:49;;;;;;;11.77;2.80;;;-4.90;99.90;;;;;;5033377;28;20419;-76
2021/12/09 06:34:15;;;;;;;4.77;1.97;;;-5.10;99.90;;;;;;5018089;28;20271;-74
2021/12/09 06:36:42;;;;;;;6.17;3.20;;;-4.80;99.90;;;;;;5018389;28;20224;-83
2021/12/09 06:39:08;;;;;;;4.13;2.10;;;-5.20;99.90;;;;;;5016959;28;20177;-79
2021/12/09 06:41:34;;;;;;;9.30;3.70;;;-4.50;99.90;;;;;;5017250;28;20474;-77
2021/12/09 06:44:00;;;;;;;4.33;1.73;;;-3.80;99.90;;;;;;5017909;28;20410;-73
2021/12/09 06:46:26;;;;;;;3.57;2.30;;;-3.40;99.90;;;;;;5018146;28;20184;-75
2021/12/09 06:48:52;;;;;;;4.70;2.67;;;-4.70;99.90;;;;;;5018065;28;20431;-71
2021/12/09 06:51:18;;;;;;;6.47;2.30;;;-4.70;99.90;;;;;;5036646;28;20569;-76
2021/12/09 06:53:44;;;;;;;8.03;5.60;;;-4.70;99.90;;;;;;5027842;28;20461;-81
2021/12/09 06:56:10;;;;;;;11.43;7.50;;;-4.70;99.90;;;;;;5024743;28;21709;-78
2021/12/09 06:58:36;;;;;;;8.03;2.13;;;-4.40;99.90;;;;;;5035596;28;20187;-81
2021/12/09 07:01:04;;;;;;;8.57;2.33;;;-4.90;99.90;;;;;;5015936;28;20185;-78
2021/12/09 07:03:30;;;;;;;6.67;2.60;;;-4.50;99.90;;;;;;5017353;28;20395;-75
2021/12/09 07:05:57;;;;;;;13.87;3.40;;;-3.80;99.90;;;;;;5026487;28;20428;-82
2021/12/09 07:08:23;;;;;;;7.73;3.30;;;-5.50;99.90;;;;;;5036816;28;20549;-80
2021/12/09 07:10:51;;;;;;;6.77;2.67;;;-4.40;99.90;;;;;;5036578;28;20418;-84
2021/12/09 07:13:17;;;;;;;8.63;2.60;;;-5.60;99.90;;;;;;5036252;28;20192;-83
2021/12/09 07:15:42;;;;;;;9.37;4.20;;;-5.60;99.90;;;;;;5036553;28;20429;-78
2021/12/09 07:18:08;;;;;;;3.13;2.83;;;-5.60;99.90;;;;;;5036936;28;20165;-73
2021/12/09 07:20:34;;;;;;;5.63;2.90;;;-5.10;99.90;;;;;;5027695;28;20602;-81
2021/12/09 07:23:01;;;;;;;4.53;3.03;;;-5.00;99.90;;;;;;5035799;28;20192;-80
2021/12/09 07:25:28;;;;;;;4.67;3.37;;;-5.20;99.90;;;;;;5036030;28;20497;-80
2021/12/09 07:27:55;;;;;;;11.17;3.83;;;-5.00;99.90;;;;;;5023256;28;20540;-71
2021/12/09 07:30:26;;;;;;;6.63;3.33;;;-4.90;99.90;;;;;;5034336;28;20406;-78
2021/12/09 07:32:52;;;;;;;3.33;3.03;;;-5.20;99.90;;;;;;5035374;28;20446;-77
2021/12/09 07:35:18;;;;;;;17.40;5.87;;;-5.30;99.90;;;;;;5034900;28;20445;-75
2021/12/09 07:37:44;;;;;;;4.70;2.53;;;-5.30;99.90;;;;;;5034074;28;20501;-71
2021/12/09 07:40:16;;;;;;;6.03;3.30;;;-4.90;99.90;;;;;;5036289;28;20424;-75
2021/12/09 07:42:42;;;;;;;3.87;3.00;;;-4.90;99.90;;;;;;5035186;28;20460;-73
2021/12/09 07:45:10;;;;;;;3.33;2.90;;;-4.60;99.90;;;;;;5036053;28;20409;-73
2021/12/09 07:47:36;;;;;;;5.07;4.30;;;-4.60;99.90;;;;;;5024282;28;20505;-72
2021/12/09 07:50:17;;;;;;;6.30;3.07;;;-5.00;99.90;;;;;;5035277;28;20524;-71
2021/12/09 07:52:55;;;;;;;2.97;2.00;;;-5.10;99.90;;;;;;5022723;28;20214;-72
2021/12/09 07:55:22;;;;;;;4.57;3.70;;;-4.70;99.90;;;;;;5030829;28;20420;-77
2021/12/09 07:57:48;;;;;;;7.10;2.90;;;-4.70;99.90;;;;;;5030962;28;20857;-78
2021/12/09 08:00:20;;;;;;;4.23;2.50;;;-4.80;99.90;;;;;;5035818;28;20464;-70
2021/12/09 08:02:49;;;;;;;6.87;2.83;;;-4.80;99.90;;;;;;5035625;28;20602;-73
2021/12/09 08:05:16;;;;;;;7.27;2.73;;;-4.70;99.90;;;;;;5035251;28;20413;-73
2021/12/09 08:07:42;;;;;;;4.60;2.90;;;-4.50;99.90;;;;;;5035432;28;20412;-71
2021/12/09 08:10:11;;;;;;;4.07;2.70;;;-4.40;99.90;;;;;;5035006;28;20406;-73
2021/12/09 08:12:37;;;;;;;4.43;3.13;;;-4.60;99.90;;;;;;5035473;28;20608;-71
2021/12/09 08:15:05;;;;;;;4.97;2.87;;;-4.90;99.90;;;;;;5034887;28;20735;-71
2021/12/09 08:17:45;;;;;;;5.77;2.40;;;-5.40;99.90;;;;;;5034575;28;20448;-71
2021/12/09 08:20:14;;;;;;;4.67;2.50;;;-5.50;99.90;;;;;;5035226;28;20413;-71
2021/12/09 08:22:41;;;;;;;7.10;2.30;;;-5.60;99.90;;;;;;5035190;28;20416;-73
2021/12/09 08:25:09;;;;;;;6.27;2.20;;;-5.10;99.90;;;;;;5035325;28;20440;-70
2021/12/09 08:27:36;;;;;;;6.50;2.50;;;-5.40;99.90;;;;;;5021497;28;20498;-71
2021/12/09 08:30:07;;;;;;;4.40;2.57;;;-5.50;99.90;;;;;;5035250;28;20402;-74
2021/12/09 08:32:34;;;;;;;3.33;2.60;;;-5.80;99.90;;;;;;5035292;28;20853;-76
2021/12/09 08:35:00;;;;;;;4.53;2.67;;;-5.40;99.90;;;;;;5034866;28;20453;-74
2021/12/09 08:37:27;;;;;;;5.37;3.07;;;-5.00;99.90;;;;;;5034871;28;20448;-72
2021/12/09 08:39:53;;;;;;;5.73;2.73;;;-4.60;99.90;;;;;;5035134;28;20436;-71
2021/12/09 08:42:19;;;;;;;10.67;2.80;;;-5.30;99.90;;;;;;5034946;28;20441;-75
2021/12/09 08:44:45;;;;;;;4.70;2.70;;;-5.00;99.90;;;;;;5034888;28;20406;-77
2021/12/09 08:47:11;;;;;;;8.97;2.30;;;-4.30;99.90;;;;;;5034582;28;20417;-69
2021/12/09 08:49:38;;;;;;;3.97;2.23;;;-4.60;99.90;;;;;;5034846;28;20188;-73
2021/12/09 08:52:05;;;;;;;2.80;2.33;;;-4.60;99.90;;;;;;5033893;28;20575;-78
2021/12/09 08:54:31;;;;;;;4.13;2.40;;;-4.80;99.90;;;;;;5030898;28;20472;-70
2021/12/09 08:56:58;;;;;;;3.90;3.27;;;-4.40;99.90;;;;;;5028165;28;20504;-79
2021/12/09 08:59:25;;;;;;;5.60;2.03;;;-4.60;99.90;;;;;;5036761;28;20603;-78
2021/12/09 09:01:52;;;;;;;5.10;2.23;;;-4.40;99.90;;;;;;5030688;28;20390;-73
2021/12/09 09:04:18;;;;;;;2.57;1.80;;;-4.50;99.90;;;;;;5041971;28;20393;-80
2021/12/09 09:06:54;;;;;;;4.13;2.93;;;-4.80;99.90;;;;;;5040800;28;20716;-74
2021/12/09 09:09:20;;;;;;;3.27;2.43;;;-5.00;99.90;;;;;;5041000;28;20413;-69
2021/12/09 09:11:47;;;;;;;3.10;2.20;;;-4.80;99.90;;;;;;5041463;28;20499;-77
2021/12/09 09:14:13;;;;;;;3.37;2.37;;;-5.00;99.90;;;;;;5041208;28;20472;-73
2021/12/09 09:16:39;;;;;;;2.53;2.33;;;-5.00;99.90;;;;;;5040811;28;20824;-74
2021/12/09 09:19:05;;;;;;;1.97;1.77;;;-4.90;99.90;;;;;;5041777;28;20393;-82
2021/12/09 09:21:32;;;;;;;2.10;1.93;;;-4.60;99.90;;;;;;5041040;28;20172;-81
2021/12/09 09:23:58;;;;;;;1.80;1.70;;;-5.00;99.90;;;;;;5041132;28;20398;-76
2021/12/09 09:26:24;;;;;;;2.27;2.07;;;-4.70;99.90;;;;;;5038847;28;20405;-80
2021/12/09 09:28:50;;;;;;;3.03;2.07;;;-5.00;99.90;;;;;;5040329;28;20167;-75
2021/12/09 09:31:16;;;;;;;2.13;1.93;;;-4.80;99.90;;;;;;5040925;28;20704;-75
2021/12/09 09:33:42;;;;;;;2.30;2.10;;;-4.90;99.90;;;;;;5040067;28;20847;-81
2021/12/09 09:36:08;;;;;;;2.70;2.20;;;-4.30;99.90;;;;;;5040896;28;20430;-78
2021/12/09 09:38:34;;;;;;;2.70;2.50;;;-4.70;99.90;;;;;;5040631;28;20157;-81
2021/12/09 09:41:09;;;;;;;3.03;2.13;;;-4.40;99.90;;;;;;5040207;28;20386;-73
2021/12/09 09:46:14;;;;;;;2.90;2.50;;;-4.10;99.90;;;;;;5041873;28;20429;-79
2021/12/09 09:48:41;;;;;;;5.03;2.93;;;-4.70;99.90;;;;;;5040566;28;20517;-81
2021/12/09 09:51:09;;;;;;;2.60;2.40;;;-4.40;99.90;;;;;;5033762;28;20560;-82
2021/12/09 09:53:41;;;;;;;5.70;3.80;;;-4.00;99.90;;;;;;5021035;28;20910;-77
2021/12/09 09:56:13;;;;;;;5.60;3.57;;;-4.10;99.90;;;;;;5031089;28;20450;-74
2021/12/09 09:58:44;;;;;;;4.30;2.87;;;-4.40;99.90;;;;;;5040565;28;20398;-75
2021/12/09 10:01:11;;;;;;;5.17;3.23;;;-3.50;99.90;;;;;;5041193;28;20426;-80
2021/12/09 10:03:41;;;;;;;3.97;2.90;;;-3.90;99.90;;;;;;5040103;28;20416;-70
2021/12/09 10:06:09;;;;;;;5.10;3.67;;;-5.30;99.90;;;;;;5039539;28;20750;-76
2021/12/09 10:08:35;;;;;;;4.97;2.90;;;-5.40;99.90;;;;;;5037308;28;20449;-75
2021/12/09 10:11:02;;;;;;;3.63;3.33;;;-4.90;99.90;;;;;;5034873;28;20406;-72
2021/12/09 10:13:36;;;;;;;7.90;2.97;;;-4.70;99.90;;;;;;5038022;28;20460;-75
2021/12/09 10:16:07;;;;;;;6.67;3.27;;;-4.60;99.90;;;;;;5020790;28;20426;-76
2021/12/09 10:18:44;;;;;;;4.73;3.03;;;-4.90;99.90;;;;;;5032706;28;20424;-79
2021/12/09 10:21:13;;;;;;;12.07;4.33;;;-4.90;99.90;;;;;;5021798;28;20450;-80
2021/12/09 10:23:44;;;;;;;3.23;3.03;;;-4.90;99.90;;;;;;5028622;28;20448;-72
2021/12/09 10:26:26;;;;;;;4.60;2.87;;;-4.80;99.90;;;;;;5025766;28;20424;-75
2021/12/09 10:29:16;;;;;;;3.63;3.33;;;-4.70;99.90;;;;;;5026711;28;20459;-71
2021/12/09 10:31:48;;;;;;;4.93;2.87;;;-4.80;99.90;;;;;;5028469;28;20403;-77
2021/12/09 10:36:59;;;;;;;6.40;3.70;;;-4.90;99.90;;;;;;5027364;28;20406;-77
2021/12/09 10:39:37;;;;;;;5.87;3.07;;;-4.90;99.90;;;;;;5027165;28;20481;-71
2021/12/09 10:42:11;;;;;;;7.43;3.67;;;-4.90;99.90;;;;;;5024676;28;20493;-71
2021/12/09 10:44:47;;;;;;;9.37;3.27;;;-4.40;99.90;;;;;;5023770;28;20493;-71
2021/12/09 10:47:22;;;;;;;5.53;3.97;;;-4.50;99.90;;;;;;5030984;28;20422;-70
2021/12/09 10:50:07;;;;;;;9.13;3.50;;;-4.40;99.90;;;;;;5034948;28;20453;-70
2021/12/09 10:52:42;;;;;;;5.20;4.20;;;-5.40;99.90;;;;;;5035169;28;20462;-69
2021/12/09 10:55:13;;;;;;;7.53;3.60;;;-4.70;99.90;;;;;;5036964;28;20905;-68
2021/12/09 10:57:40;;;;;;;10.13;3.73;;;-5.90;99.90;;;;;;5035846;28;20505;-69
2021/12/09 11:00:18;;;;;;;11.20;4.00;;;-5.40;99.90;;;;;;5036310;28;20935;-71
2021/12/09 11:03:09;;;;;;;9.13;3.43;;;-4.70;99.90;;;;;;5037246;28;20403;-74
2021/12/09 11:05:45;;;;;;;5.13;3.37;;;-5.00;99.90;;;;;;5036066;28;20409;-74
2021/12/09 11:08:35;;;;;;;7.23;3.47;;;-5.50;99.90;;;;;;5036523;28;20413;-70
2021/12/09 11:11:15;;;;;;;6.67;3.33;;;-5.70;99.90;;;;;;5038198;28;20422;-72
2021/12/09 11:13:49;;;;;;;14.73;6.83;;;-5.70;99.90;;;;;;5035365;28;20448;-72
2021/12/09 11:16:29;;;;;;;11.53;3.97;;;-4.90;99.90;;;;;;5036765;28;20679;-71
2021/12/09 11:19:04;;;;;;;6.13;3.63;;;-4.90;99.90;;;;;;5032028;28;20488;-79
2021/12/09 11:21:33;;;;;;;13.90;4.57;;;-4.40;99.90;;;;;;5035262;28;20419;-71
2021/12/09 11:24:18;;;;;;;4.90;4.33;;;-5.10;99.90;;;;;;5036826;28;20801;-77
2021/12/09 11:26:55;;;;;;;17.27;6.17;;;-4.90;99.90;;;;;;5036134;28;20421;-78
2021/12/09 11:29:29;;;;;;;8.57;4.10;;;-4.80;99.90;;;;;;5023082;28;20427;-80
2021/12/09 11:35:16;;;;;;;11.40;4.27;;;-4.40;99.90;;;;;;5029947;28;20431;-74
2021/12/09 11:37:54;;;;;;;12.97;5.50;;;-5.20;99.90;;;;;;5034968;28;20405;-81
2021/12/09 11:40:40;;;;;;;8.70;4.23;;;-4.80;99.90;;;;;;5035695;28;20402;-70
2021/12/09 11:43:10;;;;;;;7.90;3.93;;;-5.10;99.90;;;;;;5035321;28;20414;-77
2021/12/09 11:45:42;;;;;;;9.07;5.00;;;-4.80;99.90;;;;;;5036347;28;20393;-79
2021/12/09 11:48:11;;;;;;;10.07;4.03;;;-4.70;99.90;;;;;;5034218;28;20438;-75
2021/12/09 11:50:40;;;;;;;11.13;5.07;;;-4.80;99.90;;;;;;5029023;28;20855;-79
2021/12/09 11:53:09;;;;;;;10.07;5.13;;;-4.90;99.90;;;;;;5031349;28;20449;-73
2021/12/09 11:55:46;;;;;;;7.87;3.93;;;-5.20;99.90;;;;;;5017127;28;20513;-75
2021/12/09 11:58:25;;;;;;;7.30;5.40;;;-4.90;99.90;;;;;;5027885;28;20396;-77
2021/12/09 12:15:32;;;;;;;9.87;4.77;;;-5.30;99.90;;;;;;5035806;28;20738;-79
2021/12/09 12:24:10;;;;;;;13.80;5.20;;;-4.70;99.90;;;;;;5035404;28;20396;-72
2021/12/09 12:40:56;;;;;;;12.20;5.53;;;-4.80;99.90;;;;;;5035851;28;20455;-74
2021/12/09 12:43:54;;;;;;;10.77;5.03;;;-4.90;99.90;;;;;;5033553;28;20415;-77
2021/12/09 12:50:08;;;;;;;12.60;5.43;;;-5.00;99.90;;;;;;5052072;28;20521;-71
2021/12/09 12:52:34;;;;;;;11.90;5.13;;;-4.90;99.90;;;;;;5036058;28;21022;-71
2021/12/09 12:55:25;;;;;;;7.93;5.80;;;-4.80;99.90;;;;;;5042092;28;20849;-71
2021/12/09 12:57:54;;;;;;;10.10;5.43;;;-4.60;99.90;;;;;;5033903;28;20413;-70
2021/12/09 13:00:43;;;;;;;10.77;5.23;;;-5.00;99.90;;;;;;5035596;28;20756;-74
2021/12/09 13:03:40;;;;;;;10.67;6.03;;;-4.70;99.90;;;;;;5030590;28;20424;-77
2021/12/09 13:06:13;;;;;;;14.23;5.60;;;-4.50;99.90;;;;;;5014781;28;20422;-73
2021/12/09 13:12:07;;;;;;;8.63;5.00;;;-4.60;99.90;;;;;;5026290;28;20442;-73
2021/12/09 13:15:25;;;;;;;17.50;6.43;;;-5.20;99.90;;;;;;5032503;28;20410;-72
2021/12/09 13:18:07;;;;;;;24.43;7.27;;;-5.20;99.90;;;;;;5027006;28;20419;-71
2021/12/09 13:20:36;;;;;;;10.90;4.73;;;-5.10;99.90;;;;;;5033514;28;20860;-72
2021/12/09 13:23:19;;;;;;;20.77;5.57;;;-4.70;99.90;;;;;;5034217;28;20409;-72
2021/12/09 13:26:09;;;;;;;9.60;4.30;;;-4.80;99.90;;;;;;5032436;28;20457;-73
2021/12/09 13:28:39;;;;;;;10.37;5.13;;;-4.70;99.90;;;;;;5014911;28;20501;-70
2021/12/09 13:31:37;;;;;;;15.33;5.63;;;-5.10;99.90;;;;;;5032836;28;20421;-73
2021/12/09 13:34:15;;;;;;;14.63;4.77;;;-4.90;99.90;;;;;;5026984;28;20467;-75
2021/12/09 13:37:03;;;;;;;5.70;3.90;;;-4.40;99.90;;;;;;5033758;28;20416;-70
2021/12/09 13:48:25;;;;;;;23.20;6.17;;;-4.80;99.90;;;;;;5038518;28;20427;-72
2021/12/09 13:56:21;;;;;;;6.67;3.90;;;-5.10;99.90;;;;;;5034277;28;20425;-73
2021/12/09 13:58:50;;;;;;;8.73;3.90;;;-4.90;99.90;;;;;;5037001;28;20394;-78
2021/12/09 14:01:16;;;;;;;6.20;3.67;;;-4.90;99.90;;;;;;5038394;28;20405;-77